Main page
METAR-TAF:

METAR-TAF

Airports :

RAF Shawbury

Shawbury, England

latitude: 52-48N, longitude: 002-40W, elevation: 76 m

Current weather observation

The report was made 1 hour and 18 minutes ago, at 16:50 UTC
Wind 9 kt from the South/Southeast
Temperature 22°C
Humidity 46%
Pressure 1017 hPa
Visibility 10 km or more

METAR: EGOS 151650Z AUTO 16009KT 9999 FEW130/// SCT190/// 22/10 Q1017

Time: 19:08 (18:08 UTC)

Forecast

The report was made 4 hours and 15 minutes ago, at 13:53 UTC
Forecast valid from 15 at 15 UTC to 15 at 18 UTC
Wind 5 kt from variable directions
Visibility 10 km or more
no clouds below 1500 m and no cumulonimbus

TAF: EGOS 151353Z 1515/1518 VRB05KT CAVOK

Weather observations and forecasts of more than 4000 airports (METAR and TAF reports).

The available stations are represented by yellow and red dots on the map.

Hover mouse over dot to see the name of the station.

Then click to see weather observations and forecasts.

To change the map : click on the green buttons with a black cross to zoom in, on the green button with a dash to zoom out, or on the green arrows for adjacent maps.


METAR-TAF: